Time,TemperatureF,DewpointF,PressureIn,WindDirection,WindDirectionDegrees,WindSpeedMPH,WindSpeedGustMPH,Humidity,HourlyPrecipIn,Conditions,Clouds,dailyrainin,SolarRadiationWatts/m^2,SoftwareType,DateUTC
2013-06-07 00:02:00,61.0,57.0,-100.00,SE,142,3.0,4.0,88,0.00,,,0.00,0.000000,,2013-06-07 10:02:00,
2013-06-07 00:12:00,61.0,57.0,-100.00,SE,142,3.0,4.0,88,0.00,,,0.00,0.000000,,2013-06-07 10:12:00,
2013-06-07 00:22:00,61.0,57.0,-100.00,SE,142,3.0,4.0,88,0.00,,,0.00,0.000000,,2013-06-07 10:22:00,
2013-06-07 00:32:00,61.0,57.0,-100.00,SE,142,3.0,4.0,88,0.00,,,0.00,0.000000,,2013-06-07 10:32:00,
2013-06-07 00:53:00,60.0,57.0,-100.00,SE,136,0.0,5.0,91,0.00,,,0.00,0.000000,,2013-06-07 10:53:00,
2013-06-07 01:02:00,60.0,57.0,-100.00,SE,136,0.0,5.0,91,0.00,,,0.00,0.000000,,2013-06-07 11:02:00,
2013-06-07 01:12:00,60.0,57.0,-100.00,SE,136,0.0,5.0,91,0.00,,,0.00,0.000000,,2013-06-07 11:12:00,
2013-06-07 01:22:00,60.0,57.0,-100.00,SE,136,0.0,5.0,91,0.00,,,0.00,0.000000,,2013-06-07 11:22:00,
2013-06-07 01:32:00,60.0,57.0,-100.00,SE,136,0.0,5.0,91,0.00,,,0.00,0.000000,,2013-06-07 11:32:00,
2013-06-07 01:52:00,61.0,58.0,-100.00,SSE,161,3.0,6.0,89,0.00,,,0.00,0.000000,,2013-06-07 11:52:00,
2013-06-07 02:02:00,61.0,58.0,-100.00,SSE,161,3.0,6.0,89,0.00,,,0.00,0.000000,,2013-06-07 12:02:00,
2013-06-07 02:12:00,61.0,58.0,-100.00,SSE,161,3.0,6.0,89,0.00,,,0.00,0.000000,,2013-06-07 12:12:00,
2013-06-07 02:22:00,61.0,58.0,-100.00,SSE,161,3.0,6.0,89,0.00,,,0.00,0.000000,,2013-06-07 12:22:00,
2013-06-07 02:32:00,61.0,58.0,-100.00,SSE,161,3.0,6.0,89,0.00,,,0.00,0.000000,,2013-06-07 12:32:00,
2013-06-07 02:52:00,59.0,56.0,-100.00,SE,130,5.0,7.0,89,0.00,,,0.00,0.000000,,2013-06-07 12:52:00,
2013-06-07 03:02:00,59.0,56.0,-100.00,SE,130,5.0,7.0,89,0.00,,,0.00,0.000000,,2013-06-07 13:02:00,
2013-06-07 03:12:00,59.0,56.0,-100.00,SE,130,5.0,7.0,89,0.00,,,0.00,0.000000,,2013-06-07 13:12:00,
2013-06-07 03:22:00,59.0,56.0,-100.00,SE,130,5.0,7.0,89,0.00,,,0.00,0.000000,,2013-06-07 13:22:00,
2013-06-07 03:32:00,59.0,56.0,-100.00,SE,130,5.0,7.0,89,0.00,,,0.00,0.000000,,2013-06-07 13:32:00,
2013-06-07 03:52:00,60.0,52.0,-100.00,SSE,147,8.0,11.0,75,0.00,,,0.00,0.000000,,2013-06-07 13:52:00,
2013-06-07 04:02:00,60.0,52.0,-100.00,SSE,147,8.0,11.0,75,0.00,,,0.00,0.000000,,2013-06-07 14:02:00,
2013-06-07 04:12:00,60.0,52.0,-100.00,SSE,147,8.0,11.0,75,0.00,,,0.00,0.000000,,2013-06-07 14:12:00,
2013-06-07 04:22:00,60.0,52.0,-100.00,SSE,147,8.0,11.0,75,0.00,,,0.00,0.000000,,2013-06-07 14:22:00,
2013-06-07 04:32:00,60.0,52.0,-100.00,SSE,147,8.0,11.0,75,0.00,,,0.00,0.000000,,2013-06-07 14:32:00,
2013-06-07 04:52:00,61.0,48.0,-100.00,SSE,147,11.0,16.0,62,0.00,,,0.00,0.000000,,2013-06-07 14:52:00,
2013-06-07 05:02:00,61.0,48.0,-100.00,SSE,147,11.0,16.0,62,0.00,,,0.00,0.000000,,2013-06-07 15:02:00,
2013-06-07 05:12:00,61.0,48.0,-100.00,SSE,147,11.0,16.0,62,0.00,,,0.00,0.000000,,2013-06-07 15:12:00,
2013-06-07 05:22:00,61.0,48.0,-100.00,SSE,147,11.0,16.0,62,0.00,,,0.00,0.000000,,2013-06-07 15:22:00,
2013-06-07 05:33:00,61.0,48.0,-100.00,SSE,147,11.0,16.0,62,0.00,,,0.00,0.000000,,2013-06-07 15:33:00,
2013-06-07 05:53:00,62.0,49.0,-100.00,SE,141,11.0,20.0,63,0.00,,,0.00,0.000000,,2013-06-07 15:53:00,
2013-06-07 06:03:00,62.0,49.0,-100.00,SE,141,11.0,20.0,63,0.00,,,0.00,0.000000,,2013-06-07 16:03:00,
2013-06-07 06:12:00,62.0,49.0,-100.00,SE,141,11.0,20.0,63,0.00,,,0.00,0.000000,,2013-06-07 16:12:00,
2013-06-07 06:22:00,62.0,49.0,-100.00,SE,141,11.0,20.0,63,0.00,,,0.00,0.000000,,2013-06-07 16:22:00,
2013-06-07 06:32:00,62.0,49.0,-100.00,SE,141,11.0,20.0,63,0.00,,,0.00,0.000000,,2013-06-07 16:32:00,
2013-06-07 06:53:00,65.0,50.0,-100.00,SE,144,11.0,18.0,58,0.00,,,0.00,49.000000,,2013-06-07 16:53:00,
2013-06-07 07:02:00,65.0,50.0,-100.00,SE,144,11.0,18.0,58,0.00,,,0.00,49.000000,,2013-06-07 17:02:00,
2013-06-07 07:12:00,65.0,50.0,-100.00,SE,144,11.0,18.0,58,0.00,,,0.00,49.000000,,2013-06-07 17:12:00,
2013-06-07 07:22:00,65.0,50.0,-100.00,SE,144,11.0,18.0,58,0.00,,,0.00,49.000000,,2013-06-07 17:22:00,
2013-06-07 07:32:00,65.0,50.0,-100.00,SE,144,11.0,18.0,58,0.00,,,0.00,49.000000,,2013-06-07 17:32:00,
2013-06-07 07:52:00,72.0,51.0,-100.00,SE,129,6.0,18.0,47,0.00,,,0.00,298.000000,,2013-06-07 17:52:00,
2013-06-07 08:05:00,72.0,51.0,-100.00,SE,129,6.0,18.0,47,0.00,,,0.00,298.000000,,2013-06-07 18:05:00,
2013-06-07 08:15:00,72.0,51.0,-100.00,SE,129,6.0,18.0,47,0.00,,,0.00,298.000000,,2013-06-07 18:15:00,
2013-06-07 08:23:00,72.0,51.0,-100.00,SE,129,6.0,18.0,47,0.00,,,0.00,298.000000,,2013-06-07 18:23:00,
2013-06-07 08:34:00,72.0,51.0,-100.00,SE,129,6.0,18.0,47,0.00,,,0.00,298.000000,,2013-06-07 18:34:00,
2013-06-07 08:58:00,76.0,51.0,-100.00,NNE,13,3.0,10.0,42,0.00,,,0.00,602.000000,,2013-06-07 18:58:00,
2013-06-07 09:05:00,76.0,51.0,-100.00,NNE,13,3.0,10.0,42,0.00,,,0.00,602.000000,,2013-06-07 19:05:00,
2013-06-07 09:14:00,76.0,51.0,-100.00,NNE,13,3.0,10.0,42,0.00,,,0.00,602.000000,,2013-06-07 19:14:00,
2013-06-07 09:25:00,76.0,51.0,-100.00,NNE,13,3.0,10.0,42,0.00,,,0.00,602.000000,,2013-06-07 19:25:00,
2013-06-07 09:57:00,75.0,55.0,-100.00,NNE,13,11.0,16.0,50,0.00,,,0.00,855.000000,,2013-06-07 19:57:00,
2013-06-07 10:05:00,75.0,55.0,-100.00,NNE,13,11.0,16.0,50,0.00,,,0.00,855.000000,,2013-06-07 20:05:00,
2013-06-07 10:13:00,75.0,55.0,-100.00,NNE,13,11.0,16.0,50,0.00,,,0.00,855.000000,,2013-06-07 20:13:00,
2013-06-07 10:23:00,75.0,55.0,-100.00,NNE,13,11.0,16.0,50,0.00,,,0.00,855.000000,,2013-06-07 20:23:00,
2013-06-07 10:35:00,75.0,55.0,-100.00,NNE,13,11.0,16.0,50,0.00,,,0.00,855.000000,,2013-06-07 20:35:00,
2013-06-07 11:04:00,77.0,56.0,-100.00,SSE,160,6.0,18.0,49,0.00,,,0.00,792.000000,,2013-06-07 21:04:00,
2013-06-07 11:15:00,77.0,56.0,-100.00,SSE,160,6.0,18.0,49,0.00,,,0.00,792.000000,,2013-06-07 21:15:00,
2013-06-07 11:25:00,77.0,56.0,-100.00,SSE,160,6.0,18.0,49,0.00,,,0.00,792.000000,,2013-06-07 21:25:00,
2013-06-07 11:35:00,77.0,56.0,-100.00,SSE,160,6.0,18.0,49,0.00,,,0.00,792.000000,,2013-06-07 21:35:00,
2013-06-07 12:00:00,77.0,60.0,-100.00,North,356,10.0,22.0,55,0.00,,,0.00,611.000000,,2013-06-07 22:00:00,
2013-06-07 12:07:00,77.0,60.0,-100.00,North,356,10.0,22.0,55,0.00,,,0.00,611.000000,,2013-06-07 22:07:00,
2013-06-07 12:17:00,77.0,60.0,-100.00,North,356,10.0,22.0,55,0.00,,,0.00,611.000000,,2013-06-07 22:17:00,
2013-06-07 12:24:00,77.0,60.0,-100.00,North,356,10.0,22.0,55,0.00,,,0.00,611.000000,,2013-06-07 22:24:00,
2013-06-07 12:33:00,77.0,60.0,-100.00,North,356,10.0,22.0,55,0.00,,,0.00,611.000000,,2013-06-07 22:33:00,
2013-06-07 12:59:00,76.0,60.0,-100.00,NNE,29,15.0,27.0,58,0.00,,,0.00,656.000000,,2013-06-07 22:59:00,
2013-06-07 13:05:00,76.0,60.0,-100.00,NNE,29,15.0,27.0,58,0.00,,,0.00,656.000000,,2013-06-07 23:05:00,
2013-06-07 13:17:00,76.0,60.0,-100.00,NNE,29,15.0,27.0,58,0.00,,,0.00,656.000000,,2013-06-07 23:17:00,
2013-06-07 13:25:00,76.0,60.0,-100.00,NNE,29,15.0,27.0,58,0.00,,,0.00,656.000000,,2013-06-07 23:25:00,
2013-06-07 13:33:00,76.0,60.0,-100.00,NNE,29,15.0,27.0,58,0.00,,,0.00,656.000000,,2013-06-07 23:33:00,
2013-06-07 14:08:00,76.0,60.0,-100.00,NNE,12,11.0,24.0,58,0.00,,,0.00,919.000000,,2013-06-08 00:08:00,
2013-06-07 14:14:00,76.0,60.0,-100.00,NNE,12,11.0,24.0,58,0.00,,,0.00,919.000000,,2013-06-08 00:14:00,
2013-06-07 14:33:00,76.0,60.0,-100.00,NNE,12,11.0,24.0,58,0.00,,,0.00,919.000000,,2013-06-08 00:33:00,
2013-06-07 15:05:00,75.0,62.0,-100.00,NNE,20,17.0,28.0,64,0.00,,,0.00,820.000000,,2013-06-08 01:05:00,
2013-06-07 15:16:00,75.0,62.0,-100.00,NNE,20,17.0,28.0,64,0.00,,,0.00,820.000000,,2013-06-08 01:16:00,
2013-06-07 15:34:00,75.0,62.0,-100.00,NNE,20,17.0,28.0,64,0.00,,,0.00,820.000000,,2013-06-08 01:34:00,
2013-06-07 15:59:00,71.0,58.0,-100.00,NNE,23,20.0,29.0,64,0.00,,,0.00,662.000000,,2013-06-08 01:59:00,
2013-06-07 16:07:00,71.0,58.0,-100.00,NNE,23,20.0,29.0,64,0.00,,,0.00,662.000000,,2013-06-08 02:07:00,
2013-06-07 16:13:00,71.0,58.0,-100.00,NNE,23,20.0,29.0,64,0.00,,,0.00,662.000000,,2013-06-08 02:13:00,
2013-06-07 16:25:00,71.0,58.0,-100.00,NNE,23,20.0,29.0,64,0.00,,,0.00,662.000000,,2013-06-08 02:25:00,
2013-06-07 16:33:00,71.0,58.0,-100.00,NNE,23,20.0,29.0,64,0.00,,,0.00,662.000000,,2013-06-08 02:33:00,
2013-06-07 16:59:00,72.0,61.0,-100.00,North,11,12.0,27.0,68,0.00,,,0.00,549.000000,,2013-06-08 02:59:00,
2013-06-07 17:08:00,72.0,61.0,-100.00,North,11,12.0,27.0,68,0.00,,,0.00,549.000000,,2013-06-08 03:08:00,
2013-06-07 17:15:00,72.0,61.0,-100.00,North,11,12.0,27.0,68,0.00,,,0.00,549.000000,,2013-06-08 03:15:00,
2013-06-07 17:25:00,72.0,61.0,-100.00,North,11,12.0,27.0,68,0.00,,,0.00,549.000000,,2013-06-08 03:25:00,
2013-06-07 17:33:00,72.0,61.0,-100.00,North,11,12.0,27.0,68,0.00,,,0.00,549.000000,,2013-06-08 03:33:00,
2013-06-07 18:00:00,70.0,60.0,-100.00,North,0,10.0,20.0,71,0.00,,,0.00,236.000000,,2013-06-08 04:00:00,
2013-06-07 18:03:00,70.0,60.0,-100.00,North,0,10.0,20.0,71,0.00,,,0.00,236.000000,,2013-06-08 04:03:00,
2013-06-07 18:12:00,70.0,60.0,-100.00,North,0,10.0,20.0,71,0.00,,,0.00,236.000000,,2013-06-08 04:12:00,
2013-06-07 18:22:00,70.0,60.0,-100.00,North,0,10.0,20.0,71,0.00,,,0.00,236.000000,,2013-06-08 04:22:00,
2013-06-07 18:33:00,70.0,60.0,-100.00,North,0,10.0,20.0,71,0.00,,,0.00,236.000000,,2013-06-08 04:33:00,
2013-06-07 19:02:00,70.0,59.0,-100.00,WSW,246,3.0,16.0,67,0.00,,,-99.99,160.000000,,2013-06-08 05:02:00,
2013-06-07 19:12:00,70.0,59.0,-100.00,WSW,246,3.0,16.0,67,0.00,,,-99.99,160.000000,,2013-06-08 05:12:00,
2013-06-07 19:22:00,70.0,59.0,-100.00,WSW,246,3.0,16.0,67,0.00,,,-99.99,160.000000,,2013-06-08 05:22:00,
2013-06-07 19:32:00,70.0,59.0,-100.00,WSW,246,3.0,16.0,67,0.00,,,-99.99,160.000000,,2013-06-08 05:32:00,
2013-06-07 19:52:00,67.0,60.0,-100.00,SSW,204,4.0,8.0,77,0.00,,,0.00,8.000000,,2013-06-08 05:52:00,
2013-06-07 20:02:00,67.0,60.0,-100.00,SSW,204,4.0,8.0,77,0.00,,,0.00,8.000000,,2013-06-08 06:02:00,
2013-06-07 20:12:00,67.0,60.0,-100.00,SSW,204,4.0,8.0,77,0.00,,,0.00,8.000000,,2013-06-08 06:12:00,
2013-06-07 20:22:00,67.0,60.0,-100.00,SSW,204,4.0,8.0,77,0.00,,,0.00,8.000000,,2013-06-08 06:22:00,
2013-06-07 20:32:00,67.0,60.0,-100.00,SSW,204,4.0,8.0,77,0.00,,,0.00,8.000000,,2013-06-08 06:32:00,
2013-06-07 20:52:00,65.0,59.0,-100.00,SSW,195,4.0,9.0,82,0.00,,,0.00,0.000000,,2013-06-08 06:52:00,
2013-06-07 21:02:00,65.0,59.0,-100.00,SSW,195,4.0,9.0,82,0.00,,,0.00,0.000000,,2013-06-08 07:02:00,
2013-06-07 21:12:00,65.0,59.0,-100.00,SSW,195,4.0,9.0,82,0.00,,,0.00,0.000000,,2013-06-08 07:12:00,
2013-06-07 21:22:00,65.0,59.0,-100.00,SSW,195,4.0,9.0,82,0.00,,,0.00,0.000000,,2013-06-08 07:22:00,
2013-06-07 21:32:00,65.0,59.0,-100.00,SSW,195,4.0,9.0,82,0.00,,,0.00,0.000000,,2013-06-08 07:32:00,
2013-06-07 22:02:00,64.0,59.0,-100.00,South,180,3.0,9.0,84,0.00,,,0.00,0.000000,,2013-06-08 08:02:00,
2013-06-07 22:12:00,64.0,59.0,-100.00,South,180,3.0,9.0,84,0.00,,,0.00,0.000000,,2013-06-08 08:12:00,
2013-06-07 22:22:00,64.0,59.0,-100.00,South,180,3.0,9.0,84,0.00,,,0.00,0.000000,,2013-06-08 08:22:00,
2013-06-07 22:32:00,64.0,59.0,-100.00,South,180,3.0,9.0,84,0.00,,,0.00,0.000000,,2013-06-08 08:32:00,
2013-06-07 22:53:00,63.0,58.0,-100.00,ESE,123,1.0,6.0,84,0.00,,,0.00,0.000000,,2013-06-08 08:53:00,
2013-06-07 23:02:00,63.0,58.0,-100.00,ESE,123,1.0,6.0,84,0.00,,,0.00,0.000000,,2013-06-08 09:02:00,
2013-06-07 23:12:00,63.0,58.0,-100.00,ESE,123,1.0,6.0,84,0.00,,,0.00,0.000000,,2013-06-08 09:12:00,
2013-06-07 23:22:00,63.0,58.0,-100.00,ESE,123,1.0,6.0,84,0.00,,,0.00,0.000000,,2013-06-08 09:22:00,
2013-06-07 23:33:00,63.0,58.0,-100.00,ESE,123,1.0,6.0,84,0.00,,,0.00,0.000000,,2013-06-08 09:33:00,
2013-06-07 23:53:00,62.0,59.0,-100.00,SSE,158,2.0,5.0,89,0.00,,,0.00,0.000000,,2013-06-08 09:53:00,